Terminal Aerodrome Forecast
Issued by NWS Cleveland, OH

Home | Current Version | Previous Version | Text Only | Print | Product List | Glossary On
Versions: 1 2 3 4 5 6 7 8 9 10 11 12 13 14 15 16 17 18 19 20 21 22 23
000
FTUS41 KCLE 240900 AAA
TAFYNG
TAF AMD
KYNG 240901Z 2409/2506 18018G28KT P6SM SCT015 OVC025
      TEMPO 2409/2413 -SHRA OVC015
     FM242000 22028G40KT P6SM OVC035
      TEMPO 2420/2422 3SM -SHRA
     FM250000 24022G32KT P6SM OVC035=

USA.gov is the U.S. government's official web portal to all federal, state and local government web resources and services.